Carnival Victory — 3FFL8 — position and weather

sailwx.info

Track history (hours):
 
Tides and Currents Weather Stations Pressure Air Temp Water Temp Dewpoint Dewpoint Depression Visibility Wind Speed Wind Dir Waves Ship Positions

Carnival Victory

Operator: Carnival Cruise Lines

Last reported at 2014-Dec-19 11:28 UTC. Time now 2014-Dec-19 18:12 UTC.
Position N 24°28' W 081°48'.

Type: Passenger vessel. MMSI: 355263000.

Date/timePositionNaut miles runAvg speedWind from/ knotsBaromVisibWave heightAir tempDewpointWater temp
2014-Dec-19 11:28N 24°28' W 081°48'3310.0
2014-Dec-19 08:13N 24°28' W 081°12'8411.0
2014-Dec-19 00:33N 25°23' W 080°02'1313.0
2014-Dec-18 23:33N 25°35' W 080°01'1111.2
2014-Dec-18 22:33N 25°46' W 080°04'6 5.2
2014-Dec-18 21:29N 25°47' W 080°10'0 0.0
2014-Dec-18 20:26N 25°47' W 080°10'0 0.0
2014-Dec-18 19:19N 25°47' W 080°10'0 0.0
2014-Dec-18 18:28N 25°47' W 080°10'0 0.0
2014-Dec-18 17:04N 25°47' W 080°10'0 0.1
2014-Dec-18 16:31N 25°47' W 080°10'0 0.0
2014-Dec-18 15:22N 25°47' W 080°10'0 0.0
2014-Dec-18 14:24N 25°47' W 080°10'0 0.0
2014-Dec-18 13:32N 25°47' W 080°10'0 0.0
2014-Dec-18 12:33N 25°47' W 080°10'3 2.7
2014-Dec-18 11:33N 25°46' W 080°07'1010.1
2014-Dec-18 10:33N 25°37' W 080°02'1413.9
2014-Dec-18 09:33N 25°23' W 080°00'1515.2
2014-Dec-18 08:33N 25°08' W 080°02'13317.6
2014-Dec-18 01:00N 23°42' W 081°54'20817.3 020 / 121019.0 5.4 24.021.0
2014-Dec-17 13:00N 21°30' W 084°48'19516.3 040 / 141019.0 5.4 2.025.022.0
2014-Dec-17 01:00N 19°42' W 081°54'306 8.3 020 / 221013.0 5.4 24.021.028.0
2014-Dec-15 12:00N 18°42' W 076°36'16513.7 060 / 161013.010.8 26.019.029.0
2014-Dec-15 00:00N 20°36' W 074°30'21818.2 090 / 61013.0 5.4 23.0 28.0
2014-Dec-14 12:00N 22°24' W 077°54'21117.6 010 / 361015.010.8 22.014.026.5
2014-Dec-14 00:00N 25°24' W 079°54'1433.3 040 / 271019.0 5.4 2.020.017.028.0
2014-Dec-13 23:33N 25°38' W 079°59'1212.1
2014-Dec-13 22:33N 25°46' W 080°09'2 1.8
2014-Dec-13 21:33N 25°47' W 080°10'0 0.0
2014-Dec-13 20:32N 25°47' W 080°10'0 0.0
2014-Dec-13 19:20N 25°47' W 080°10'0 0.0
2014-Dec-13 18:31N 25°47' W 080°10'0 0.0
2014-Dec-13 17:25N 25°47' W 080°10'0 0.0
2014-Dec-13 16:31N 25°47' W 080°10'0 0.0
2014-Dec-13 15:27N 25°47' W 080°10'0 0.0
2014-Dec-13 14:33N 25°47' W 080°10'0 0.0
2014-Dec-13 13:29N 25°47' W 080°10'0 0.0
2014-Dec-13 12:20N 25°47' W 080°10'3 3.8
2014-Dec-13 11:33N 25°46' W 080°07'9 9.1
2014-Dec-13 10:33N 25°49' W 079°58'8 7.8
2014-Dec-13 09:33N 25°54' W 079°51'8 8.1
2014-Dec-13 08:33N 25°58' W 079°43'8 8.1
2014-Dec-13 07:33N 26°02' W 079°36'9 8.5
2014-Dec-13 06:34N 26°07' W 079°28'8 8.4
2014-Dec-13 05:33N 26°11' W 079°20'8 8.5
2014-Dec-13 04:33N 26°16' W 079°12'56 2.0
2014-Dec-12 00:00N 26°00' W 078°12'17 1.5 240 / 81015.0 5.4 1.018.015.026.0
2014-Dec-11 12:33N 25°50' W 077°56'8 7.4
2014-Dec-11 11:24N 25°54' W 077°48'50 4.4
2014-Dec-11 00:00N 25°12' W 077°18'76 2.2 300 / 131013.0 5.4 1.519.0 29.0
2014-Dec-09 13:00N 26°06' W 078°18'   280 / 191014.0 5.4 24.020.028.0
Track history (hours):
 
Tides and Currents Weather Stations Pressure Air Temp Water Temp Dewpoint Dewpoint Depression Visibility Wind Speed Wind Dir Waves Ship Positions

Carnival Victory

Operator: Carnival Cruise Lines

Last reported at 2014-Dec-19 11:28 UTC. Time now 2014-Dec-19 18:12 UTC.
Position N 24°28' W 081°48'.

Type: Passenger vessel. MMSI: 355263000.

Date/timePositionNaut miles runAvg speedWind from/ knotsBaromVisibWave heightAir tempDewpointWater temp
2014-Dec-19 11:28N 24°28' W 081°48'3310.0
2014-Dec-19 08:13N 24°28' W 081°12'8411.0
2014-Dec-19 00:33N 25°23' W 080°02'1313.0
2014-Dec-18 23:33N 25°35' W 080°01'1111.2
2014-Dec-18 22:33N 25°46' W 080°04'6 5.2
2014-Dec-18 21:29N 25°47' W 080°10'0 0.0
2014-Dec-18 20:26N 25°47' W 080°10'0 0.0
2014-Dec-18 19:19N 25°47' W 080°10'0 0.0
2014-Dec-18 18:28N 25°47' W 080°10'0 0.0
2014-Dec-18 17:04N 25°47' W 080°10'0 0.1
2014-Dec-18 16:31N 25°47' W 080°10'0 0.0
2014-Dec-18 15:22N 25°47' W 080°10'0 0.0
2014-Dec-18 14:24N 25°47' W 080°10'0 0.0
2014-Dec-18 13:32N 25°47' W 080°10'0 0.0
2014-Dec-18 12:33N 25°47' W 080°10'3 2.7
2014-Dec-18 11:33N 25°46' W 080°07'1010.1
2014-Dec-18 10:33N 25°37' W 080°02'1413.9
2014-Dec-18 09:33N 25°23' W 080°00'1515.2
2014-Dec-18 08:33N 25°08' W 080°02'13317.6
2014-Dec-18 01:00N 23°42' W 081°54'20817.3 020 / 121019.0 5.4 24.021.0
2014-Dec-17 13:00N 21°30' W 084°48'19516.3 040 / 141019.0 5.4 2.025.022.0
2014-Dec-17 01:00N 19°42' W 081°54'306 8.3 020 / 221013.0 5.4 24.021.028.0
2014-Dec-15 12:00N 18°42' W 076°36'16513.7 060 / 161013.010.8 26.019.029.0
2014-Dec-15 00:00N 20°36' W 074°30'21818.2 090 / 61013.0 5.4 23.0 28.0
2014-Dec-14 12:00N 22°24' W 077°54'21117.6 010 / 361015.010.8 22.014.026.5
2014-Dec-14 00:00N 25°24' W 079°54'1433.3 040 / 271019.0 5.4 2.020.017.028.0
2014-Dec-13 23:33N 25°38' W 079°59'1212.1
2014-Dec-13 22:33N 25°46' W 080°09'2 1.8
2014-Dec-13 21:33N 25°47' W 080°10'0 0.0
2014-Dec-13 20:32N 25°47' W 080°10'0 0.0
2014-Dec-13 19:20N 25°47' W 080°10'0 0.0
2014-Dec-13 18:31N 25°47' W 080°10'0 0.0
2014-Dec-13 17:25N 25°47' W 080°10'0 0.0
2014-Dec-13 16:31N 25°47' W 080°10'0 0.0
2014-Dec-13 15:27N 25°47' W 080°10'0 0.0
2014-Dec-13 14:33N 25°47' W 080°10'0 0.0
2014-Dec-13 13:29N 25°47' W 080°10'0 0.0
2014-Dec-13 12:20N 25°47' W 080°10'3 3.8
2014-Dec-13 11:33N 25°46' W 080°07'9 9.1
2014-Dec-13 10:33N 25°49' W 079°58'8 7.8
2014-Dec-13 09:33N 25°54' W 079°51'8 8.1
2014-Dec-13 08:33N 25°58' W 079°43'8 8.1
2014-Dec-13 07:33N 26°02' W 079°36'9 8.5
2014-Dec-13 06:34N 26°07' W 079°28'8 8.4
2014-Dec-13 05:33N 26°11' W 079°20'8 8.5
2014-Dec-13 04:33N 26°16' W 079°12'56 2.0
2014-Dec-12 00:00N 26°00' W 078°12'17 1.5 240 / 81015.0 5.4 1.018.015.026.0
2014-Dec-11 12:33N 25°50' W 077°56'8 7.4
2014-Dec-11 11:24N 25°54' W 077°48'50 4.4
2014-Dec-11 00:00N 25°12' W 077°18'76 2.2 300 / 131013.0 5.4 1.519.0 29.0
2014-Dec-09 13:00N 26°06' W 078°18'   280 / 191014.0 5.4 24.020.028.0

Dump ship's entire track history